sensor_id;sensor_type;location;lat;lon;timestamp;P1;durP1;ratioP1;P2;durP2;ratioP2
16967;SDS011;64862;54.398;10.126;2022-12-05T00:02:23;15.05;;;7.53;;
16967;SDS011;64862;54.398;10.126;2022-12-05T00:04:50;12.80;;;6.40;;
16967;SDS011;64862;54.398;10.126;2022-12-05T00:07:17;18.73;;;7.13;;
16967;SDS011;64862;54.398;10.126;2022-12-05T00:09:44;14.23;;;6.35;;
16967;SDS011;64862;54.398;10.126;2022-12-05T00:12:12;11.98;;;6.53;;
16967;SDS011;64862;54.398;10.126;2022-12-05T00:14:38;16.35;;;6.07;;
16967;SDS011;64862;54.398;10.126;2022-12-05T00:17:05;10.88;;;5.65;;
16967;SDS011;64862;54.398;10.126;2022-12-05T00:19:34;15.60;;;5.90;;
16967;SDS011;64862;54.398;10.126;2022-12-05T00:22:01;13.73;;;6.00;;
16967;SDS011;64862;54.398;10.126;2022-12-05T00:24:29;11.90;;;5.22;;
16967;SDS011;64862;54.398;10.126;2022-12-05T00:26:56;12.50;;;5.70;;
16967;SDS011;64862;54.398;10.126;2022-12-05T00:29:23;12.02;;;5.10;;
16967;SDS011;64862;54.398;10.126;2022-12-05T00:31:50;10.90;;;4.82;;
16967;SDS011;64862;54.398;10.126;2022-12-05T00:34:17;11.00;;;4.93;;
16967;SDS011;64862;54.398;10.126;2022-12-05T00:36:45;12.77;;;4.88;;
16967;SDS011;64862;54.398;10.126;2022-12-05T00:39:12;12.75;;;4.95;;
16967;SDS011;64862;54.398;10.126;2022-12-05T00:41:39;9.57;;;4.78;;
16967;SDS011;64862;54.398;10.126;2022-12-05T00:44:07;9.07;;;4.45;;
16967;SDS011;64862;54.398;10.126;2022-12-05T00:46:36;9.10;;;4.53;;
16967;SDS011;64862;54.398;10.126;2022-12-05T00:49:04;8.48;;;4.22;;
16967;SDS011;64862;54.398;10.126;2022-12-05T00:51:35;11.25;;;4.18;;
16967;SDS011;64862;54.398;10.126;2022-12-05T00:54:06;10.88;;;4.82;;
16967;SDS011;64862;54.398;10.126;2022-12-05T00:56:34;11.63;;;4.28;;
16967;SDS011;64862;54.398;10.126;2022-12-05T00:59:05;13.57;;;4.82;;
16967;SDS011;64862;54.398;10.126;2022-12-05T01:01:33;12.55;;;4.45;;
16967;SDS011;64862;54.398;10.126;2022-12-05T01:04:02;12.98;;;4.63;;
16967;SDS011;64862;54.398;10.126;2022-12-05T01:06:30;13.40;;;4.78;;
16967;SDS011;64862;54.398;10.126;2022-12-05T01:08:57;13.55;;;4.65;;
16967;SDS011;64862;54.398;10.126;2022-12-05T01:11:26;10.00;;;4.60;;
16967;SDS011;64862;54.398;10.126;2022-12-05T01:13:53;10.82;;;4.10;;
16967;SDS011;64862;54.398;10.126;2022-12-05T01:16:22;9.98;;;4.32;;
16967;SDS011;64862;54.398;10.126;2022-12-05T01:18:50;9.27;;;4.25;;
16967;SDS011;64862;54.398;10.126;2022-12-05T01:21:17;9.25;;;4.50;;
16967;SDS011;64862;54.398;10.126;2022-12-05T01:23:45;11.27;;;4.53;;
16967;SDS011;64862;54.398;10.126;2022-12-05T01:26:15;9.75;;;4.90;;
16967;SDS011;64862;54.398;10.126;2022-12-05T01:28:45;9.57;;;4.63;;
16967;SDS011;64862;54.398;10.126;2022-12-05T01:31:15;10.88;;;4.30;;
16967;SDS011;64862;54.398;10.126;2022-12-05T01:33:47;9.70;;;4.55;;
16967;SDS011;64862;54.398;10.126;2022-12-05T01:36:14;10.82;;;4.38;;
16967;SDS011;64862;54.398;10.126;2022-12-05T01:38:42;9.82;;;4.60;;
16967;SDS011;64862;54.398;10.126;2022-12-05T01:41:11;13.15;;;5.30;;
16967;SDS011;64862;54.398;10.126;2022-12-05T01:43:54;13.90;;;5.32;;
16967;SDS011;64862;54.398;10.126;2022-12-05T01:46:22;10.02;;;4.80;;
16967;SDS011;64862;54.398;10.126;2022-12-05T01:48:50;8.75;;;4.70;;
16967;SDS011;64862;54.398;10.126;2022-12-05T01:51:18;15.68;;;5.10;;
16967;SDS011;64862;54.398;10.126;2022-12-05T01:53:45;11.63;;;4.80;;
16967;SDS011;64862;54.398;10.126;2022-12-05T01:56:12;16.20;;;5.85;;
16967;SDS011;64862;54.398;10.126;2022-12-05T01:58:40;14.82;;;5.75;;
16967;SDS011;64862;54.398;10.126;2022-12-05T02:01:10;13.25;;;5.15;;
16967;SDS011;64862;54.398;10.126;2022-12-05T02:03:39;14.90;;;5.47;;
16967;SDS011;64862;54.398;10.126;2022-12-05T02:06:06;13.80;;;4.97;;
16967;SDS011;64862;54.398;10.126;2022-12-05T02:08:35;8.55;;;5.00;;
16967;SDS011;64862;54.398;10.126;2022-12-05T02:11:02;14.05;;;4.93;;
16967;SDS011;64862;54.398;10.126;2022-12-05T02:13:37;14.18;;;5.22;;
16967;SDS011;64862;54.398;10.126;2022-12-05T02:16:42;13.52;;;5.95;;
16967;SDS011;64862;54.398;10.126;2022-12-05T02:31:23;13.40;;;5.90;;
16967;SDS011;64862;54.398;10.126;2022-12-05T02:33:55;10.63;;;5.63;;
16967;SDS011;64862;54.398;10.126;2022-12-05T02:36:30;13.88;;;6.00;;
16967;SDS011;64862;54.398;10.126;2022-12-05T02:39:02;13.02;;;5.97;;
16967;SDS011;64862;54.398;10.126;2022-12-05T02:41:36;14.70;;;6.53;;
16967;SDS011;64862;54.398;10.126;2022-12-05T02:44:06;12.05;;;6.00;;
16967;SDS011;64862;54.398;10.126;2022-12-05T02:46:40;15.27;;;6.45;;
16967;SDS011;64862;54.398;10.126;2022-12-05T02:49:11;13.35;;;6.15;;
16967;SDS011;64862;54.398;10.126;2022-12-05T02:51:43;11.95;;;5.72;;
16967;SDS011;64862;54.398;10.126;2022-12-05T02:54:13;15.35;;;6.32;;
16967;SDS011;64862;54.398;10.126;2022-12-05T02:56:44;12.15;;;6.47;;
16967;SDS011;64862;54.398;10.126;2022-12-05T02:59:12;14.48;;;6.18;;
16967;SDS011;64862;54.398;10.126;2022-12-05T03:01:42;15.93;;;6.95;;
16967;SDS011;64862;54.398;10.126;2022-12-05T03:04:10;16.25;;;6.63;;
16967;SDS011;64862;54.398;10.126;2022-12-05T03:06:39;15.93;;;6.78;;
16967;SDS011;64862;54.398;10.126;2022-12-05T03:09:11;15.63;;;6.63;;
16967;SDS011;64862;54.398;10.126;2022-12-05T03:11:41;15.85;;;7.00;;
16967;SDS011;64862;54.398;10.126;2022-12-05T03:14:13;13.02;;;6.82;;
16967;SDS011;64862;54.398;10.126;2022-12-05T03:16:48;17.73;;;7.28;;
16967;SDS011;64862;54.398;10.126;2022-12-05T03:19:19;13.88;;;7.10;;
16967;SDS011;64862;54.398;10.126;2022-12-05T03:21:51;17.33;;;7.85;;
16967;SDS011;64862;54.398;10.126;2022-12-05T03:24:22;14.30;;;6.32;;
16967;SDS011;64862;54.398;10.126;2022-12-05T03:26:52;14.52;;;6.95;;
16967;SDS011;64862;54.398;10.126;2022-12-05T03:29:30;12.90;;;6.55;;
16967;SDS011;64862;54.398;10.126;2022-12-05T03:32:06;14.02;;;6.88;;
16967;SDS011;64862;54.398;10.126;2022-12-05T03:34:45;15.95;;;7.15;;
16967;SDS011;64862;54.398;10.126;2022-12-05T03:37:18;13.32;;;6.40;;
16967;SDS011;64862;54.398;10.126;2022-12-05T03:39:48;15.18;;;6.60;;
16967;SDS011;64862;54.398;10.126;2022-12-05T03:42:30;13.27;;;6.80;;
16967;SDS011;64862;54.398;10.126;2022-12-05T03:45:03;13.98;;;6.63;;
16967;SDS011;64862;54.398;10.126;2022-12-05T03:47:39;19.55;;;7.35;;
16967;SDS011;64862;54.398;10.126;2022-12-05T03:52:39;15.43;;;7.32;;
16967;SDS011;64862;54.398;10.126;2022-12-05T03:55:12;15.25;;;6.80;;
16967;SDS011;64862;54.398;10.126;2022-12-05T03:57:41;17.08;;;7.38;;
16967;SDS011;64862;54.398;10.126;2022-12-05T04:00:13;13.77;;;6.50;;
16967;SDS011;64862;54.398;10.126;2022-12-05T04:02:46;17.10;;;7.65;;
16967;SDS011;64862;54.398;10.126;2022-12-05T04:05:19;13.55;;;6.85;;
16967;SDS011;64862;54.398;10.126;2022-12-05T04:07:49;14.38;;;7.70;;
16967;SDS011;64862;54.398;10.126;2022-12-05T04:10:21;17.80;;;7.85;;
16967;SDS011;64862;54.398;10.126;2022-12-05T04:12:51;14.90;;;7.50;;
16967;SDS011;64862;54.398;10.126;2022-12-05T04:15:22;18.83;;;8.02;;
16967;SDS011;64862;54.398;10.126;2022-12-05T04:18:15;16.08;;;8.00;;
16967;SDS011;64862;54.398;10.126;2022-12-05T04:20:46;18.05;;;7.95;;
16967;SDS011;64862;54.398;10.126;2022-12-05T04:23:31;17.75;;;8.30;;
16967;SDS011;64862;54.398;10.126;2022-12-05T04:26:01;16.73;;;8.05;;
16967;SDS011;64862;54.398;10.126;2022-12-05T04:28:35;15.60;;;8.05;;
16967;SDS011;64862;54.398;10.126;2022-12-05T04:31:09;17.73;;;7.88;;
16967;SDS011;64862;54.398;10.126;2022-12-05T04:33:42;22.10;;;7.55;;
16967;SDS011;64862;54.398;10.126;2022-12-05T04:36:11;14.55;;;7.60;;
16967;SDS011;64862;54.398;10.126;2022-12-05T04:38:42;18.08;;;7.95;;
16967;SDS011;64862;54.398;10.126;2022-12-05T04:41:15;17.95;;;7.65;;
16967;SDS011;64862;54.398;10.126;2022-12-05T04:43:47;21.15;;;7.97;;
16967;SDS011;64862;54.398;10.126;2022-12-05T04:46:17;13.35;;;7.00;;
16967;SDS011;64862;54.398;10.126;2022-12-05T04:48:48;16.77;;;7.65;;
16967;SDS011;64862;54.398;10.126;2022-12-05T04:51:21;19.03;;;7.20;;
16967;SDS011;64862;54.398;10.126;2022-12-05T04:53:52;14.80;;;7.45;;
16967;SDS011;64862;54.398;10.126;2022-12-05T04:56:22;14.65;;;6.90;;
16967;SDS011;64862;54.398;10.126;2022-12-05T04:58:55;14.50;;;7.35;;
16967;SDS011;64862;54.398;10.126;2022-12-05T05:01:24;12.88;;;6.40;;
16967;SDS011;64862;54.398;10.126;2022-12-05T05:06:27;15.85;;;6.47;;
16967;SDS011;64862;54.398;10.126;2022-12-05T05:08:55;16.63;;;6.95;;
16967;SDS011;64862;54.398;10.126;2022-12-05T05:11:23;12.93;;;6.95;;
16967;SDS011;64862;54.398;10.126;2022-12-05T05:13:54;15.63;;;7.10;;
16967;SDS011;64862;54.398;10.126;2022-12-05T05:16:22;15.15;;;6.82;;
16967;SDS011;64862;54.398;10.126;2022-12-05T05:18:51;13.50;;;6.53;;
16967;SDS011;64862;54.398;10.126;2022-12-05T05:21:23;15.88;;;6.35;;
16967;SDS011;64862;54.398;10.126;2022-12-05T05:23:51;16.80;;;7.25;;
16967;SDS011;64862;54.398;10.126;2022-12-05T05:26:18;13.82;;;6.50;;
16967;SDS011;64862;54.398;10.126;2022-12-05T05:28:45;15.38;;;6.30;;
16967;SDS011;64862;54.398;10.126;2022-12-05T05:31:13;11.43;;;6.10;;
16967;SDS011;64862;54.398;10.126;2022-12-05T05:33:46;18.98;;;6.40;;
16967;SDS011;64862;54.398;10.126;2022-12-05T05:36:14;11.25;;;6.00;;
16967;SDS011;64862;54.398;10.126;2022-12-05T05:38:42;17.33;;;5.50;;
16967;SDS011;64862;54.398;10.126;2022-12-05T05:41:11;13.50;;;6.30;;
16967;SDS011;64862;54.398;10.126;2022-12-05T05:43:41;12.63;;;6.03;;
16967;SDS011;64862;54.398;10.126;2022-12-05T05:46:08;13.52;;;5.90;;
16967;SDS011;64862;54.398;10.126;2022-12-05T05:48:35;11.63;;;5.95;;
16967;SDS011;64862;54.398;10.126;2022-12-05T05:51:03;11.10;;;6.30;;
16967;SDS011;64862;54.398;10.126;2022-12-05T05:53:31;13.13;;;6.05;;
16967;SDS011;64862;54.398;10.126;2022-12-05T05:56:02;10.88;;;6.00;;
16967;SDS011;64862;54.398;10.126;2022-12-05T05:58:30;14.73;;;6.28;;
16967;SDS011;64862;54.398;10.126;2022-12-05T06:01:01;13.02;;;6.10;;
16967;SDS011;64862;54.398;10.126;2022-12-05T06:03:29;15.10;;;6.88;;
16967;SDS011;64862;54.398;10.126;2022-12-05T06:05:56;13.70;;;6.78;;
16967;SDS011;64862;54.398;10.126;2022-12-05T06:08:23;12.93;;;7.15;;
16967;SDS011;64862;54.398;10.126;2022-12-05T06:10:50;13.80;;;7.00;;
16967;SDS011;64862;54.398;10.126;2022-12-05T06:13:19;13.80;;;6.50;;
16967;SDS011;64862;54.398;10.126;2022-12-05T06:15:47;15.75;;;6.75;;
16967;SDS011;64862;54.398;10.126;2022-12-05T06:18:14;15.38;;;6.68;;
16967;SDS011;64862;54.398;10.126;2022-12-05T06:20:41;16.83;;;6.65;;
16967;SDS011;64862;54.398;10.126;2022-12-05T06:23:08;12.05;;;6.90;;
16967;SDS011;64862;54.398;10.126;2022-12-05T06:25:35;15.20;;;7.00;;
16967;SDS011;64862;54.398;10.126;2022-12-05T06:28:04;15.65;;;6.65;;
16967;SDS011;64862;54.398;10.126;2022-12-05T06:30:32;17.27;;;6.68;;
16967;SDS011;64862;54.398;10.126;2022-12-05T06:32:59;18.80;;;6.80;;
16967;SDS011;64862;54.398;10.126;2022-12-05T06:35:26;18.02;;;6.82;;
16967;SDS011;64862;54.398;10.126;2022-12-05T06:37:53;15.73;;;6.63;;
16967;SDS011;64862;54.398;10.126;2022-12-05T06:40:20;13.95;;;6.80;;
16967;SDS011;64862;54.398;10.126;2022-12-05T06:42:47;19.02;;;7.20;;
16967;SDS011;64862;54.398;10.126;2022-12-05T06:45:14;14.27;;;6.40;;
16967;SDS011;64862;54.398;10.126;2022-12-05T06:47:43;13.93;;;6.18;;
16967;SDS011;64862;54.398;10.126;2022-12-05T06:50:10;13.65;;;6.45;;
16967;SDS011;64862;54.398;10.126;2022-12-05T06:52:37;13.50;;;5.90;;
16967;SDS011;64862;54.398;10.126;2022-12-05T06:55:07;14.18;;;6.45;;
16967;SDS011;64862;54.398;10.126;2022-12-05T06:57:34;13.68;;;6.82;;
16967;SDS011;64862;54.398;10.126;2022-12-05T07:00:02;13.35;;;6.30;;
16967;SDS011;64862;54.398;10.126;2022-12-05T07:02:50;16.50;;;6.47;;
16967;SDS011;64862;54.398;10.126;2022-12-05T07:05:17;19.45;;;7.95;;
16967;SDS011;64862;54.398;10.126;2022-12-05T07:07:44;28.80;;;12.57;;
16967;SDS011;64862;54.398;10.126;2022-12-05T07:10:14;46.67;;;21.30;;
16967;SDS011;64862;54.398;10.126;2022-12-05T07:12:41;17.17;;;8.35;;
16967;SDS011;64862;54.398;10.126;2022-12-05T07:15:09;27.67;;;9.45;;
16967;SDS011;64862;54.398;10.126;2022-12-05T07:17:37;17.45;;;8.32;;
16967;SDS011;64862;54.398;10.126;2022-12-05T07:20:06;19.40;;;7.65;;
16967;SDS011;64862;54.398;10.126;2022-12-05T07:22:35;21.65;;;7.32;;
16967;SDS011;64862;54.398;10.126;2022-12-05T07:25:02;21.67;;;8.32;;
16967;SDS011;64862;54.398;10.126;2022-12-05T07:27:30;16.90;;;7.78;;
16967;SDS011;64862;54.398;10.126;2022-12-05T07:29:58;19.85;;;7.47;;
16967;SDS011;64862;54.398;10.126;2022-12-05T07:32:25;15.60;;;6.95;;
16967;SDS011;64862;54.398;10.126;2022-12-05T07:34:56;23.65;;;7.20;;
16967;SDS011;64862;54.398;10.126;2022-12-05T07:37:24;19.98;;;7.60;;
16967;SDS011;64862;54.398;10.126;2022-12-05T07:39:51;20.95;;;7.75;;
16967;SDS011;64862;54.398;10.126;2022-12-05T07:42:18;23.38;;;8.38;;
16967;SDS011;64862;54.398;10.126;2022-12-05T07:44:45;17.42;;;7.18;;
16967;SDS011;64862;54.398;10.126;2022-12-05T07:47:12;17.67;;;7.55;;
16967;SDS011;64862;54.398;10.126;2022-12-05T07:49:39;20.88;;;8.15;;
16967;SDS011;64862;54.398;10.126;2022-12-05T07:52:06;25.52;;;8.05;;
16967;SDS011;64862;54.398;10.126;2022-12-05T07:54:35;22.67;;;7.32;;
16967;SDS011;64862;54.398;10.126;2022-12-05T07:57:02;16.55;;;7.47;;
16967;SDS011;64862;54.398;10.126;2022-12-05T07:59:29;13.30;;;6.85;;
16967;SDS011;64862;54.398;10.126;2022-12-05T08:01:56;18.92;;;7.43;;
16967;SDS011;64862;54.398;10.126;2022-12-05T08:04:26;18.20;;;7.18;;
16967;SDS011;64862;54.398;10.126;2022-12-05T08:06:53;15.45;;;6.35;;
16967;SDS011;64862;54.398;10.126;2022-12-05T08:09:20;19.95;;;6.88;;
16967;SDS011;64862;54.398;10.126;2022-12-05T08:11:48;16.90;;;6.30;;
16967;SDS011;64862;54.398;10.126;2022-12-05T08:14:15;18.02;;;6.35;;
16967;SDS011;64862;54.398;10.126;2022-12-05T08:16:42;12.13;;;5.40;;
16967;SDS011;64862;54.398;10.126;2022-12-05T08:19:09;14.27;;;5.47;;
16967;SDS011;64862;54.398;10.126;2022-12-05T08:21:38;16.48;;;5.80;;
16967;SDS011;64862;54.398;10.126;2022-12-05T08:24:05;14.95;;;5.28;;
16967;SDS011;64862;54.398;10.126;2022-12-05T08:26:33;16.67;;;5.50;;
16967;SDS011;64862;54.398;10.126;2022-12-05T08:29:05;13.25;;;5.03;;
16967;SDS011;64862;54.398;10.126;2022-12-05T08:31:35;17.00;;;5.70;;
16967;SDS011;64862;54.398;10.126;2022-12-05T08:34:05;17.88;;;6.07;;
16967;SDS011;64862;54.398;10.126;2022-12-05T08:36:32;20.45;;;5.65;;
16967;SDS011;64862;54.398;10.126;2022-12-05T08:38:59;19.67;;;5.40;;
16967;SDS011;64862;54.398;10.126;2022-12-05T08:41:29;17.58;;;5.35;;
16967;SDS011;64862;54.398;10.126;2022-12-05T08:43:56;20.83;;;6.65;;
16967;SDS011;64862;54.398;10.126;2022-12-05T08:46:26;17.70;;;4.95;;
16967;SDS011;64862;54.398;10.126;2022-12-05T08:48:53;19.63;;;5.63;;
16967;SDS011;64862;54.398;10.126;2022-12-05T08:51:20;13.43;;;4.78;;
16967;SDS011;64862;54.398;10.126;2022-12-05T08:53:50;14.55;;;4.55;;
16967;SDS011;64862;54.398;10.126;2022-12-05T08:56:17;9.98;;;5.00;;
16967;SDS011;64862;54.398;10.126;2022-12-05T08:58:47;13.95;;;5.65;;
16967;SDS011;64862;54.398;10.126;2022-12-05T09:01:15;13.25;;;5.30;;
16967;SDS011;64862;54.398;10.126;2022-12-05T09:03:45;10.02;;;4.25;;
16967;SDS011;64862;54.398;10.126;2022-12-05T09:06:12;8.68;;;4.18;;
16967;SDS011;64862;54.398;10.126;2022-12-05T09:08:43;13.55;;;4.13;;
16967;SDS011;64862;54.398;10.126;2022-12-05T09:11:11;14.23;;;3.80;;
16967;SDS011;64862;54.398;10.126;2022-12-05T09:13:40;13.63;;;4.18;;
16967;SDS011;64862;54.398;10.126;2022-12-05T09:16:09;11.18;;;4.30;;
16967;SDS011;64862;54.398;10.126;2022-12-05T09:18:37;15.57;;;5.07;;
16967;SDS011;64862;54.398;10.126;2022-12-05T09:21:06;12.77;;;4.15;;
16967;SDS011;64862;54.398;10.126;2022-12-05T09:23:36;13.38;;;4.60;;
16967;SDS011;64862;54.398;10.126;2022-12-05T09:26:04;16.85;;;4.57;;
16967;SDS011;64862;54.398;10.126;2022-12-05T09:28:31;11.80;;;5.20;;
16967;SDS011;64862;54.398;10.126;2022-12-05T09:31:00;13.43;;;4.80;;
16967;SDS011;64862;54.398;10.126;2022-12-05T09:33:28;15.68;;;5.03;;
16967;SDS011;64862;54.398;10.126;2022-12-05T09:35:56;17.08;;;6.10;;
16967;SDS011;64862;54.398;10.126;2022-12-05T09:38:24;14.77;;;6.32;;
16967;SDS011;64862;54.398;10.126;2022-12-05T09:40:53;14.40;;;7.00;;
16967;SDS011;64862;54.398;10.126;2022-12-05T09:43:29;16.25;;;6.80;;
16967;SDS011;64862;54.398;10.126;2022-12-05T09:46:03;22.05;;;7.78;;
16967;SDS011;64862;54.398;10.126;2022-12-05T09:48:44;19.67;;;8.15;;
16967;SDS011;64862;54.398;10.126;2022-12-05T09:51:12;20.13;;;7.68;;
16967;SDS011;64862;54.398;10.126;2022-12-05T09:53:41;15.80;;;7.05;;
16967;SDS011;64862;54.398;10.126;2022-12-05T09:56:11;17.92;;;6.45;;
16967;SDS011;64862;54.398;10.126;2022-12-05T09:58:47;24.23;;;9.27;;
16967;SDS011;64862;54.398;10.126;2022-12-05T10:06:57;23.13;;;7.28;;
16967;SDS011;64862;54.398;10.126;2022-12-05T10:12:20;23.05;;;7.90;;
16967;SDS011;64862;54.398;10.126;2022-12-05T10:15:03;12.77;;;6.00;;
16967;SDS011;64862;54.398;10.126;2022-12-05T10:17:39;19.73;;;6.82;;
16967;SDS011;64862;54.398;10.126;2022-12-05T10:20:09;22.48;;;7.75;;
16967;SDS011;64862;54.398;10.126;2022-12-05T10:22:42;22.98;;;8.18;;
16967;SDS011;64862;54.398;10.126;2022-12-05T10:25:16;20.02;;;7.95;;
16967;SDS011;64862;54.398;10.126;2022-12-05T10:27:46;23.33;;;9.15;;
16967;SDS011;64862;54.398;10.126;2022-12-05T10:30:16;31.52;;;12.10;;
16967;SDS011;64862;54.398;10.126;2022-12-05T10:32:48;19.15;;;8.93;;
16967;SDS011;64862;54.398;10.126;2022-12-05T10:35:21;19.35;;;8.68;;
16967;SDS011;64862;54.398;10.126;2022-12-05T10:37:50;21.77;;;8.40;;
16967;SDS011;64862;54.398;10.126;2022-12-05T10:40:22;21.13;;;9.48;;
16967;SDS011;64862;54.398;10.126;2022-12-05T10:42:53;25.17;;;9.85;;
16967;SDS011;64862;54.398;10.126;2022-12-05T10:45:21;24.58;;;9.27;;
16967;SDS011;64862;54.398;10.126;2022-12-05T10:47:52;18.45;;;8.52;;
16967;SDS011;64862;54.398;10.126;2022-12-05T10:50:23;22.42;;;8.63;;
16967;SDS011;64862;54.398;10.126;2022-12-05T10:53:02;22.77;;;8.73;;
16967;SDS011;64862;54.398;10.126;2022-12-05T10:55:33;22.65;;;8.57;;
16967;SDS011;64862;54.398;10.126;2022-12-05T10:58:09;17.13;;;7.28;;
16967;SDS011;64862;54.398;10.126;2022-12-05T11:00:38;14.90;;;6.70;;
16967;SDS011;64862;54.398;10.126;2022-12-05T11:03:20;15.73;;;6.80;;
16967;SDS011;64862;54.398;10.126;2022-12-05T11:05:54;17.42;;;7.10;;
16967;SDS011;64862;54.398;10.126;2022-12-05T11:08:23;18.33;;;7.60;;
16967;SDS011;64862;54.398;10.126;2022-12-05T11:11:03;19.13;;;8.18;;
16967;SDS011;64862;54.398;10.126;2022-12-05T11:13:32;22.42;;;8.63;;
16967;SDS011;64862;54.398;10.126;2022-12-05T11:16:00;21.13;;;8.90;;
16967;SDS011;64862;54.398;10.126;2022-12-05T11:18:28;22.17;;;9.02;;
16967;SDS011;64862;54.398;10.126;2022-12-05T11:21:07;21.50;;;8.82;;
16967;SDS011;64862;54.398;10.126;2022-12-05T11:23:36;22.02;;;7.13;;
16967;SDS011;64862;54.398;10.126;2022-12-05T11:26:05;23.90;;;9.07;;
16967;SDS011;64862;54.398;10.126;2022-12-05T11:28:43;22.92;;;8.68;;
16967;SDS011;64862;54.398;10.126;2022-12-05T11:31:18;23.88;;;9.25;;
16967;SDS011;64862;54.398;10.126;2022-12-05T11:34:00;23.10;;;9.80;;
16967;SDS011;64862;54.398;10.126;2022-12-05T11:36:34;23.70;;;9.65;;
16967;SDS011;64862;54.398;10.126;2022-12-05T11:39:05;20.80;;;8.55;;
16967;SDS011;64862;54.398;10.126;2022-12-05T11:41:39;24.23;;;6.70;;
16967;SDS011;64862;54.398;10.126;2022-12-05T11:44:28;15.68;;;6.47;;
16967;SDS011;64862;54.398;10.126;2022-12-05T11:47:17;18.60;;;7.05;;
16967;SDS011;64862;54.398;10.126;2022-12-05T11:50:02;18.45;;;7.80;;
16967;SDS011;64862;54.398;10.126;2022-12-05T11:52:46;22.10;;;7.97;;
16967;SDS011;64862;54.398;10.126;2022-12-05T11:55:23;22.88;;;7.97;;
16967;SDS011;64862;54.398;10.126;2022-12-05T11:58:01;23.67;;;8.18;;
16967;SDS011;64862;54.398;10.126;2022-12-05T12:00:58;20.35;;;7.68;;
16967;SDS011;64862;54.398;10.126;2022-12-05T12:03:45;18.55;;;7.68;;
16967;SDS011;64862;54.398;10.126;2022-12-05T12:06:26;22.75;;;9.55;;
16967;SDS011;64862;54.398;10.126;2022-12-05T12:09:11;23.50;;;9.50;;
16967;SDS011;64862;54.398;10.126;2022-12-05T12:11:51;23.48;;;9.43;;
16967;SDS011;64862;54.398;10.126;2022-12-05T12:14:25;27.40;;;10.10;;
16967;SDS011;64862;54.398;10.126;2022-12-05T12:17:04;27.45;;;10.48;;
16967;SDS011;64862;54.398;10.126;2022-12-05T12:22:33;30.40;;;10.90;;
16967;SDS011;64862;54.398;10.126;2022-12-05T12:25:17;30.70;;;11.77;;
16967;SDS011;64862;54.398;10.126;2022-12-05T12:27:51;26.10;;;11.35;;
16967;SDS011;64862;54.398;10.126;2022-12-05T12:30:35;32.08;;;12.32;;
16967;SDS011;64862;54.398;10.126;2022-12-05T12:33:13;30.95;;;12.77;;
16967;SDS011;64862;54.398;10.126;2022-12-05T12:35:54;34.92;;;13.73;;
16967;SDS011;64862;54.398;10.126;2022-12-05T12:38:37;33.53;;;13.38;;
16967;SDS011;64862;54.398;10.126;2022-12-05T12:47:35;32.35;;;13.30;;
16967;SDS011;64862;54.398;10.126;2022-12-05T12:50:13;34.28;;;13.55;;
16967;SDS011;64862;54.398;10.126;2022-12-05T12:52:49;33.17;;;13.73;;
16967;SDS011;64862;54.398;10.126;2022-12-05T12:55:26;29.63;;;12.13;;
16967;SDS011;64862;54.398;10.126;2022-12-05T12:58:05;35.50;;;12.80;;
16967;SDS011;64862;54.398;10.126;2022-12-05T13:00:44;28.38;;;11.88;;
16967;SDS011;64862;54.398;10.126;2022-12-05T13:03:20;55.17;;;23.38;;
16967;SDS011;64862;54.398;10.126;2022-12-05T13:05:51;37.35;;;16.30;;
16967;SDS011;64862;54.398;10.126;2022-12-05T13:08:25;43.53;;;18.83;;
16967;SDS011;64862;54.398;10.126;2022-12-05T13:10:58;36.55;;;12.38;;
16967;SDS011;64862;54.398;10.126;2022-12-05T13:13:30;32.00;;;11.98;;
16967;SDS011;64862;54.398;10.126;2022-12-05T13:18:32;29.05;;;10.65;;
16967;SDS011;64862;54.398;10.126;2022-12-05T13:21:00;21.63;;;10.30;;
16967;SDS011;64862;54.398;10.126;2022-12-05T13:23:32;25.27;;;9.48;;
16967;SDS011;64862;54.398;10.126;2022-12-05T13:26:01;22.10;;;8.98;;
16967;SDS011;64862;54.398;10.126;2022-12-05T13:28:34;19.60;;;8.35;;
16967;SDS011;64862;54.398;10.126;2022-12-05T13:31:06;19.40;;;8.77;;
16967;SDS011;64862;54.398;10.126;2022-12-05T13:33:40;20.95;;;8.50;;
16967;SDS011;64862;54.398;10.126;2022-12-05T13:36:09;30.23;;;12.55;;
16967;SDS011;64862;54.398;10.126;2022-12-05T13:38:58;31.13;;;13.80;;
16967;SDS011;64862;54.398;10.126;2022-12-05T13:41:45;38.58;;;14.50;;
16967;SDS011;64862;54.398;10.126;2022-12-05T13:44:34;20.90;;;9.30;;
16967;SDS011;64862;54.398;10.126;2022-12-05T13:47:05;75.32;;;28.58;;
16967;SDS011;64862;54.398;10.126;2022-12-05T13:49:47;14.98;;;7.32;;
16967;SDS011;64862;54.398;10.126;2022-12-05T13:52:18;15.13;;;6.63;;
16967;SDS011;64862;54.398;10.126;2022-12-05T13:54:52;14.07;;;7.13;;
16967;SDS011;64862;54.398;10.126;2022-12-05T14:00:21;20.23;;;7.85;;
16967;SDS011;64862;54.398;10.126;2022-12-05T14:02:57;23.60;;;7.65;;
16967;SDS011;64862;54.398;10.126;2022-12-05T14:05:41;19.08;;;8.48;;
16967;SDS011;64862;54.398;10.126;2022-12-05T14:11:25;23.38;;;10.43;;
16967;SDS011;64862;54.398;10.126;2022-12-05T14:13:53;22.83;;;9.93;;
16967;SDS011;64862;54.398;10.126;2022-12-05T14:19:15;16.17;;;8.07;;
16967;SDS011;64862;54.398;10.126;2022-12-05T14:22:16;19.85;;;9.10;;
16967;SDS011;64862;54.398;10.126;2022-12-05T14:25:09;22.52;;;9.23;;
16967;SDS011;64862;54.398;10.126;2022-12-05T14:27:47;20.90;;;9.23;;
16967;SDS011;64862;54.398;10.126;2022-12-05T14:30:21;20.70;;;9.05;;
16967;SDS011;64862;54.398;10.126;2022-12-05T14:32:51;21.20;;;9.05;;
16967;SDS011;64862;54.398;10.126;2022-12-05T14:35:21;22.95;;;8.48;;
16967;SDS011;64862;54.398;10.126;2022-12-05T14:37:54;19.10;;;7.30;;
16967;SDS011;64862;54.398;10.126;2022-12-05T14:40:26;20.75;;;7.85;;
16967;SDS011;64862;54.398;10.126;2022-12-05T14:42:57;18.50;;;6.88;;
16967;SDS011;64862;54.398;10.126;2022-12-05T14:45:29;20.02;;;7.65;;
16967;SDS011;64862;54.398;10.126;2022-12-05T14:48:00;16.58;;;7.18;;
16967;SDS011;64862;54.398;10.126;2022-12-05T14:50:37;53.72;;;20.95;;
16967;SDS011;64862;54.398;10.126;2022-12-05T14:53:14;16.67;;;6.70;;
16967;SDS011;64862;54.398;10.126;2022-12-05T14:55:51;16.20;;;7.05;;
16967;SDS011;64862;54.398;10.126;2022-12-05T14:58:28;19.20;;;6.78;;
16967;SDS011;64862;54.398;10.126;2022-12-05T15:00:59;16.98;;;6.70;;
16967;SDS011;64862;54.398;10.126;2022-12-05T15:03:31;18.25;;;6.57;;
16967;SDS011;64862;54.398;10.126;2022-12-05T15:06:02;14.23;;;6.35;;
16967;SDS011;64862;54.398;10.126;2022-12-05T15:08:42;14.68;;;6.20;;
16967;SDS011;64862;54.398;10.126;2022-12-05T15:11:13;12.82;;;5.65;;
16967;SDS011;64862;54.398;10.126;2022-12-05T15:13:54;16.48;;;5.22;;
16967;SDS011;64862;54.398;10.126;2022-12-05T15:16:25;17.20;;;5.85;;
16967;SDS011;64862;54.398;10.126;2022-12-05T15:18:55;15.15;;;6.30;;
16967;SDS011;64862;54.398;10.126;2022-12-05T15:21:28;14.90;;;5.95;;
16967;SDS011;64862;54.398;10.126;2022-12-05T15:24:02;16.38;;;7.40;;
16967;SDS011;64862;54.398;10.126;2022-12-05T15:26:32;16.15;;;6.03;;
16967;SDS011;64862;54.398;10.126;2022-12-05T15:29:05;14.60;;;6.43;;
16967;SDS011;64862;54.398;10.126;2022-12-05T15:31:34;13.68;;;6.20;;
16967;SDS011;64862;54.398;10.126;2022-12-05T15:34:06;14.80;;;6.20;;